Time;durP1;ratioP1;P1;durP2;ratioP2;P2;SDS_P1;SDS_P2;PMS_P1;PMS_P2;Temp;Humidity;BMP_temperature;BMP_pressure;BME280_temperature;BME280_humidity;BME280_pressure;Samples;Min_cycle;Max_cycle;Signal;HPM_P1;HPM_P2
2023/07/04 00:01:20;;;;;;;7.07;1.35;;;13.80;99.90;;;;;;6270594;22;20008;-80
2023/07/04 00:03:50;;;;;;;8.52;1.30;;;13.80;99.90;;;;;;6269668;22;20016;-80
2023/07/04 00:06:17;;;;;;;5.78;1.55;;;13.80;99.90;;;;;;6268358;22;20030;-80
2023/07/04 00:08:48;;;;;;;8.00;1.45;;;13.80;99.90;;;;;;6269336;22;20062;-80
2023/07/04 00:11:13;;;;;;;5.45;1.60;;;13.80;99.90;;;;;;6270496;22;20038;-80
2023/07/04 00:13:40;;;;;;;4.65;0.82;;;13.80;99.90;;;;;;6268669;22;20043;-80
2023/07/04 00:16:08;;;;;;;8.18;1.52;;;13.80;99.90;;;;;;6269133;22;20026;-80
2023/07/04 00:18:36;;;;;;;8.25;1.20;;;13.70;99.90;;;;;;6243107;22;20008;-80
2023/07/04 00:21:03;;;;;;;6.50;1.42;;;13.70;99.90;;;;;;6269330;22;20023;-80
2023/07/04 00:23:35;;;;;;;6.43;1.35;;;13.70;99.90;;;;;;6242351;22;20450;-80
2023/07/04 00:26:26;;;;;;;9.48;1.60;;;13.70;99.90;;;;;;6268967;22;20059;-79
2023/07/04 00:28:57;;;;;;;6.63;1.50;;;13.80;99.90;;;;;;6270538;22;20229;-80
2023/07/04 00:31:24;;;;;;;6.68;1.10;;;13.60;99.90;;;;;;6242728;22;20018;-78
2023/07/04 00:33:52;;;;;;;6.15;1.83;;;13.60;99.90;;;;;;6271146;22;20342;-79
2023/07/04 00:36:19;;;;;;;3.42;0.82;;;13.50;99.90;;;;;;6270292;22;20027;-80
2023/07/04 00:38:49;;;;;;;6.35;1.20;;;13.50;99.90;;;;;;6269996;22;20016;-79
2023/07/04 00:41:20;;;;;;;5.07;1.40;;;13.40;99.90;;;;;;6268618;22;20026;-80
2023/07/04 00:44:00;;;;;;;6.47;1.30;;;13.40;99.90;;;;;;6269083;22;20012;-80
2023/07/04 00:46:38;;;;;;;8.45;1.65;;;13.40;99.90;;;;;;6243685;22;20369;-80
2023/07/04 00:49:28;;;;;;;9.63;1.77;;;13.30;99.90;;;;;;6268552;22;20446;-79
2023/07/04 00:52:25;;;;;;;5.80;1.58;;;13.30;99.90;;;;;;6255743;22;20312;-80
2023/07/04 00:54:59;;;;;;;6.32;1.45;;;13.20;99.90;;;;;;6266446;22;20422;-80
2023/07/04 00:57:31;;;;;;;4.55;1.15;;;13.20;99.90;;;;;;6270256;22;20015;-80
2023/07/04 00:59:58;;;;;;;8.70;1.80;;;13.20;99.90;;;;;;6267973;22;20095;-79
2023/07/04 01:02:28;;;;;;;8.55;1.77;;;13.20;99.90;;;;;;6267957;22;20015;-79
2023/07/04 01:04:55;;;;;;;9.95;1.30;;;13.20;99.90;;;;;;6243189;22;20012;-79
2023/07/04 01:07:48;;;;;;;10.65;1.80;;;13.20;99.90;;;;;;6244065;22;20343;-79
2023/07/04 01:10:26;;;;;;;6.90;1.77;;;13.10;99.90;;;;;;6267869;22;20458;-79
2023/07/04 01:12:52;;;;;;;6.68;1.40;;;13.10;99.90;;;;;;6271031;22;20022;-79
2023/07/04 01:15:18;;;;;;;9.65;2.28;;;13.00;99.90;;;;;;6271250;22;20016;-79
2023/07/04 01:17:44;;;;;;;6.35;1.48;;;13.00;99.90;;;;;;6269939;22;20323;-79
2023/07/04 01:20:15;;;;;;;5.97;1.20;;;13.00;99.90;;;;;;6269414;22;20335;-80
2023/07/04 01:23:16;;;;;;;7.60;1.60;;;13.00;99.90;;;;;;6243749;22;20062;-80
2023/07/04 01:25:50;;;;;;;7.70;2.08;;;13.00;99.90;;;;;;6213602;22;20324;-80
2023/07/04 01:28:17;;;;;;;5.72;1.40;;;13.00;99.90;;;;;;6271201;22;20008;-79
2023/07/04 01:30:45;;;;;;;6.53;1.05;;;13.00;99.90;;;;;;6269898;22;20046;-80
2023/07/04 01:33:14;;;;;;;6.63;1.70;;;13.00;99.90;;;;;;6268788;22;20012;-79
2023/07/04 01:35:40;;;;;;;6.85;1.45;;;12.90;99.90;;;;;;6269814;22;20016;-80
2023/07/04 01:38:06;;;;;;;7.13;1.50;;;12.90;99.90;;;;;;6268201;22;20012;-79
2023/07/04 01:40:34;;;;;;;4.72;1.55;;;13.30;99.90;;;;;;6271431;22;20019;-79
2023/07/04 01:43:04;;;;;;;8.07;1.70;;;12.90;99.90;;;;;;6269715;22;20088;-79
2023/07/04 01:45:30;;;;;;;5.07;1.42;;;12.90;99.90;;;;;;6270687;22;20365;-79
2023/07/04 01:47:55;;;;;;;5.22;1.20;;;12.90;99.90;;;;;;6268583;22;20012;-79
2023/07/04 01:50:21;;;;;;;6.80;1.40;;;13.20;99.90;;;;;;6272582;22;20157;-79
2023/07/04 01:52:47;;;;;;;9.27;1.95;;;12.90;99.90;;;;;;6245020;22;20016;-79
2023/07/04 01:55:14;;;;;;;6.55;1.30;;;12.90;99.90;;;;;;6245312;22;20020;-79
2023/07/04 01:57:41;;;;;;;7.43;1.70;;;12.90;99.90;;;;;;6245649;22;20024;-80
2023/07/04 02:00:09;;;;;;;5.47;1.38;;;12.90;99.90;;;;;;6272843;22;20095;-80
2023/07/04 02:02:39;;;;;;;4.75;1.67;;;12.90;99.90;;;;;;6270661;22;20012;-80
2023/07/04 02:05:06;;;;;;;9.77;1.33;;;12.90;99.90;;;;;;6272843;22;20031;-80
2023/07/04 02:07:32;;;;;;;8.15;1.20;;;12.90;99.90;;;;;;6272769;22;20442;-80
2023/07/04 02:09:59;;;;;;;8.88;1.77;;;12.90;99.90;;;;;;6270001;22;20026;-80
2023/07/04 02:12:25;;;;;;;7.72;1.42;;;12.90;99.90;;;;;;6271348;22;20047;-80
2023/07/04 02:14:51;;;;;;;6.57;1.48;;;12.80;99.90;;;;;;6271658;22;20435;-80
2023/07/04 02:17:19;;;;;;;10.48;1.60;;;12.80;99.90;;;;;;6271257;22;20023;-80
2023/07/04 02:19:45;;;;;;;6.80;1.63;;;12.80;99.90;;;;;;6245457;22;20423;-80
2023/07/04 02:22:11;;;;;;;5.93;1.95;;;12.80;99.90;;;;;;6271361;22;20008;-79
2023/07/04 02:24:36;;;;;;;7.88;1.70;;;12.70;99.90;;;;;;6271723;22;20022;-80
2023/07/04 02:27:02;;;;;;;5.22;1.90;;;12.70;99.90;;;;;;6270538;22;20017;-80
2023/07/04 02:29:28;;;;;;;8.75;2.15;;;12.70;99.90;;;;;;6273518;22;20304;-80
2023/07/04 02:31:54;;;;;;;6.07;1.98;;;12.70;99.90;;;;;;6270901;22;20057;-80
2023/07/04 02:34:19;;;;;;;6.35;2.28;;;12.70;99.90;;;;;;6271547;22;20027;-80
2023/07/04 02:36:48;;;;;;;15.13;2.92;;;12.70;99.90;;;;;;6270145;22;20016;-80
2023/07/04 02:39:14;;;;;;;6.05;2.22;;;12.70;99.90;;;;;;6270623;22;20335;-80
2023/07/04 02:41:40;;;;;;;12.55;3.40;;;12.60;99.90;;;;;;6245521;22;20015;-80
2023/07/04 02:44:05;;;;;;;12.25;2.85;;;12.60;99.90;;;;;;6271838;22;20019;-80
2023/07/04 02:46:31;;;;;;;9.95;3.70;;;12.60;99.90;;;;;;6271526;22;20014;-79
2023/07/04 02:48:57;;;;;;;10.63;3.90;;;12.60;99.90;;;;;;6269774;22;20342;-80
2023/07/04 02:51:25;;;;;;;11.07;3.63;;;12.60;99.90;;;;;;6270613;22;20430;-80
2023/07/04 02:53:51;;;;;;;9.20;3.45;;;12.50;99.90;;;;;;6269954;22;20065;-79
2023/07/04 02:56:16;;;;;;;14.00;4.22;;;12.60;99.90;;;;;;6269295;22;20506;-80
2023/07/04 02:58:42;;;;;;;11.27;3.85;;;12.70;99.90;;;;;;6272961;22;20357;-79
2023/07/04 03:01:09;;;;;;;7.88;3.60;;;12.60;99.90;;;;;;6243820;22;20461;-80
2023/07/04 03:03:37;;;;;;;7.68;2.65;;;12.60;99.90;;;;;;6244936;22;20012;-79
2023/07/04 03:06:04;;;;;;;11.85;4.25;;;12.60;99.90;;;;;;6268977;22;20023;-79
2023/07/04 03:08:30;;;;;;;14.75;3.92;;;12.70;99.90;;;;;;6270083;22;20435;-80
2023/07/04 03:10:56;;;;;;;10.98;3.40;;;12.70;99.90;;;;;;6271260;22;20019;-80
2023/07/04 03:13:22;;;;;;;13.98;4.97;;;12.70;99.90;;;;;;6271197;22;20024;-80
2023/07/04 03:15:47;;;;;;;14.00;4.50;;;12.70;99.90;;;;;;6244472;22;20423;-80
2023/07/04 03:18:13;;;;;;;13.48;4.07;;;12.80;99.90;;;;;;6272001;22;20011;-80
2023/07/04 03:20:39;;;;;;;11.57;3.95;;;12.80;99.90;;;;;;6269091;22;20018;-80
2023/07/04 03:23:05;;;;;;;11.98;3.10;;;12.90;99.90;;;;;;6270791;22;20081;-79
2023/07/04 03:25:31;;;;;;;12.82;3.90;;;13.00;99.90;;;;;;6244253;22;20039;-79
2023/07/04 03:27:56;;;;;;;14.75;4.22;;;12.90;99.90;;;;;;6270077;22;20019;-80
2023/07/04 03:30:22;;;;;;;8.95;2.67;;;13.00;99.90;;;;;;6272046;22;20015;-79
2023/07/04 03:32:48;;;;;;;9.93;3.58;;;13.00;99.90;;;;;;6268222;22;20021;-79
2023/07/04 03:35:17;;;;;;;10.70;3.00;;;13.10;99.90;;;;;;6269647;22;20339;-79
2023/07/04 03:37:42;;;;;;;9.27;3.08;;;13.00;99.90;;;;;;6268787;22;20065;-80
2023/07/04 03:40:09;;;;;;;8.68;3.15;;;13.20;99.90;;;;;;6242336;22;20015;-79
2023/07/04 03:42:37;;;;;;;6.38;2.30;;;13.10;99.90;;;;;;6268313;22;20502;-80
2023/07/04 03:45:04;;;;;;;11.60;3.00;;;13.10;99.90;;;;;;6267787;22;20472;-79
2023/07/04 03:47:29;;;;;;;9.25;2.70;;;13.60;99.90;;;;;;6267923;22;20015;-80
2023/07/04 03:50:06;;;;;;;7.07;2.00;;;13.10;99.90;;;;;;6269464;22;20019;-80
2023/07/04 03:52:32;;;;;;;8.88;2.65;;;13.10;99.90;;;;;;6271041;22;20039;-78
2023/07/04 03:54:58;;;;;;;13.52;3.15;;;13.10;99.90;;;;;;6271729;22;20012;-79
2023/07/04 03:57:24;;;;;;;13.77;3.20;;;13.10;99.90;;;;;;6272012;22;20336;-79
2023/07/04 03:59:49;;;;;;;10.88;3.00;;;13.10;99.90;;;;;;6269839;22;20008;-78
2023/07/04 04:02:15;;;;;;;9.07;3.40;;;13.10;99.90;;;;;;6269418;22;20012;-78
2023/07/04 04:04:41;;;;;;;12.43;3.28;;;13.10;99.90;;;;;;6269242;22;20498;-79
2023/07/04 04:07:09;;;;;;;8.52;3.35;;;13.10;99.90;;;;;;6268955;22;20050;-78
2023/07/04 04:09:36;;;;;;;10.13;2.88;;;13.10;99.90;;;;;;6268877;22;20076;-79
2023/07/04 04:12:20;;;;;;;8.00;2.20;;;13.10;99.90;;;;;;6271825;22;20062;-79
2023/07/04 04:14:46;;;;;;;11.77;3.38;;;13.10;99.90;;;;;;6243816;22;20019;-78
2023/07/04 04:17:11;;;;;;;9.13;3.10;;;13.10;99.90;;;;;;6268440;22;20051;-78
2023/07/04 04:19:37;;;;;;;12.25;3.58;;;13.10;99.90;;;;;;6244073;22;20427;-79
2023/07/04 04:22:03;;;;;;;9.63;2.78;;;13.10;99.90;;;;;;6269417;22;20073;-78
2023/07/04 04:24:29;;;;;;;10.63;3.63;;;13.10;99.90;;;;;;6268953;22;20099;-78
2023/07/04 04:26:55;;;;;;;10.80;3.55;;;13.10;99.90;;;;;;6268348;22;20019;-79
2023/07/04 04:29:22;;;;;;;8.45;2.78;;;13.10;99.90;;;;;;6271727;22;20011;-78
2023/07/04 04:31:48;;;;;;;12.75;3.90;;;13.10;99.90;;;;;;6268865;22;20016;-78
2023/07/04 04:34:16;;;;;;;12.00;3.72;;;13.10;99.90;;;;;;6269590;22;20011;-78
2023/07/04 04:36:43;;;;;;;12.32;3.60;;;13.10;99.90;;;;;;6269164;22;20030;-78
2023/07/04 04:39:08;;;;;;;8.90;3.17;;;13.10;99.90;;;;;;6267695;22;20019;-81
2023/07/04 04:41:36;;;;;;;8.13;2.72;;;13.10;99.90;;;;;;6243334;22;20022;-80
2023/07/04 04:44:04;;;;;;;11.70;3.40;;;13.20;99.90;;;;;;6268416;22;20505;-79
2023/07/04 04:46:30;;;;;;;11.77;3.60;;;13.20;99.90;;;;;;6268451;22;20385;-79
2023/07/04 04:48:58;;;;;;;13.27;3.75;;;13.30;99.90;;;;;;6271210;22;20091;-79
2023/07/04 04:51:24;;;;;;;9.93;3.70;;;13.40;99.90;;;;;;6243959;22;20015;-79
2023/07/04 04:53:50;;;;;;;10.70;3.80;;;13.30;99.90;;;;;;6270795;22;20061;-80
2023/07/04 04:56:16;;;;;;;11.20;4.18;;;13.40;99.90;;;;;;6268664;22;20864;-80
2023/07/04 04:58:43;;;;;;;11.95;3.50;;;13.40;99.90;;;;;;6271226;22;20035;-80
2023/07/04 05:01:21;;;;;;;10.27;4.10;;;13.40;99.90;;;;;;6242814;22;20810;-80
2023/07/04 05:03:51;;;;;;;10.65;4.13;;;13.40;99.90;;;;;;6270060;22;20015;-80
2023/07/04 05:06:17;;;;;;;12.18;3.85;;;13.50;99.90;;;;;;6270826;22;20016;-80
2023/07/04 05:08:47;;;;;;;14.57;4.07;;;13.50;99.90;;;;;;6240984;22;20442;-80
2023/07/04 05:11:18;;;;;;;12.70;4.05;;;13.50;99.90;;;;;;6240311;22;20350;-79
2023/07/04 05:13:45;;;;;;;13.43;4.78;;;13.50;99.90;;;;;;6266260;22;20065;-80
2023/07/04 05:16:14;;;;;;;11.13;4.32;;;13.50;99.90;;;;;;6267630;22;20023;-81
2023/07/04 05:18:42;;;;;;;15.43;4.40;;;13.60;99.90;;;;;;6268548;22;20115;-82
2023/07/04 05:21:13;;;;;;;13.73;4.22;;;13.60;99.90;;;;;;6268994;22;20057;-80
2023/07/04 05:23:41;;;;;;;11.82;4.15;;;13.60;99.90;;;;;;6271157;22;20019;-80
2023/07/04 05:26:25;;;;;;;15.43;4.75;;;13.60;99.90;;;;;;6269067;22;20529;-79
2023/07/04 05:28:53;;;;;;;15.02;4.10;;;13.60;99.90;;;;;;6270900;22;20012;-80
2023/07/04 05:31:22;;;;;;;10.82;3.58;;;13.70;99.90;;;;;;6268258;22;20019;-82
2023/07/04 05:33:48;;;;;;;15.43;4.18;;;13.70;99.90;;;;;;6269443;22;20450;-82
2023/07/04 05:36:26;;;;;;;13.95;4.32;;;13.70;99.90;;;;;;6268385;22;20065;-82
2023/07/04 05:38:56;;;;;;;14.25;4.68;;;13.80;99.90;;;;;;6243162;22;20050;-82
2023/07/04 05:41:25;;;;;;;19.33;4.38;;;13.80;99.90;;;;;;6268675;22;20024;-82
2023/07/04 05:43:56;;;;;;;8.68;3.28;;;13.80;99.90;;;;;;6268960;22;20483;-82
2023/07/04 05:46:28;;;;;;;11.68;4.00;;;13.90;99.90;;;;;;6267746;22;20023;-81
2023/07/04 05:48:55;;;;;;;9.98;3.83;;;13.90;99.90;;;;;;6267933;22;20007;-81
2023/07/04 05:51:21;;;;;;;14.15;3.38;;;13.90;99.90;;;;;;6267561;22;20444;-81
2023/07/04 05:53:49;;;;;;;14.65;3.65;;;14.00;99.90;;;;;;6267206;22;20423;-83
2023/07/04 05:56:21;;;;;;;10.93;3.30;;;14.10;99.90;;;;;;6266367;22;20011;-83
2023/07/04 05:58:48;;;;;;;10.95;3.13;;;14.10;99.90;;;;;;6265744;22;20030;-83
2023/07/04 06:01:33;;;;;;;9.57;2.50;;;14.20;99.90;;;;;;6266400;22;20081;-86
2023/07/04 06:04:04;;;;;;;10.00;3.30;;;14.20;99.90;;;;;;6268590;22;20004;-82
2023/07/04 06:06:38;;;;;;;8.75;2.75;;;14.30;99.90;;;;;;6271343;22;20019;-85
2023/07/04 06:09:10;;;;;;;9.38;2.33;;;14.30;99.90;;;;;;6269571;22;20016;-85
2023/07/04 06:11:38;;;;;;;9.02;2.47;;;14.40;99.90;;;;;;6269576;22;20323;-85
2023/07/04 06:14:05;;;;;;;8.65;2.42;;;14.40;99.90;;;;;;6268752;22;20153;-85
2023/07/04 06:16:31;;;;;;;6.70;2.13;;;14.40;99.90;;;;;;6271106;22;20130;-85
2023/07/04 06:18:57;;;;;;;7.57;1.98;;;14.50;99.90;;;;;;6269150;22;20016;-83
2023/07/04 06:21:25;;;;;;;10.90;2.67;;;14.50;99.90;;;;;;6271270;22;20073;-83
2023/07/04 06:23:58;;;;;;;6.80;2.30;;;14.60;99.90;;;;;;6271157;22;20004;-87
2023/07/04 06:26:27;;;;;;;6.75;1.85;;;14.70;99.90;;;;;;6243821;22;20026;-85
2023/07/04 06:28:54;;;;;;;10.38;2.10;;;14.70;99.90;;;;;;6269048;22;20476;-86
2023/07/04 06:31:20;;;;;;;7.72;1.67;;;14.70;99.90;;;;;;6243893;22;20015;-91
2023/07/04 06:33:46;;;;;;;8.23;2.08;;;14.80;99.90;;;;;;6243530;22;20014;-86
2023/07/04 06:36:14;;;;;;;7.53;1.70;;;14.90;99.90;;;;;;6270917;22;20028;-86
2023/07/04 06:38:40;;;;;;;9.40;1.67;;;14.90;99.90;;;;;;6275226;22;20038;-87
2023/07/04 06:41:12;;;;;;;9.00;1.92;;;14.90;99.90;;;;;;6247556;22;20012;-87
2023/07/04 06:43:39;;;;;;;8.52;1.88;;;14.90;99.90;;;;;;6272631;22;20017;-87
2023/07/04 06:46:05;;;;;;;8.32;1.30;;;15.00;99.90;;;;;;6275378;22;20462;-87
2023/07/04 06:48:31;;;;;;;7.90;1.33;;;15.00;99.90;;;;;;6274153;22;20015;-87
2023/07/04 06:51:05;;;;;;;3.80;1.27;;;15.70;99.90;;;;;;6275121;22;20026;-86
2023/07/04 06:53:32;;;;;;;6.18;1.20;;;15.20;99.90;;;;;;6274889;22;20054;-86
2023/07/04 06:56:08;;;;;;;5.72;1.10;;;15.20;99.90;;;;;;6277747;22;20026;-88
2023/07/04 06:58:35;;;;;;;4.85;1.30;;;15.30;99.90;;;;;;6275750;22;20016;-86
2023/07/04 07:01:02;;;;;;;6.45;1.27;;;15.30;99.90;;;;;;6277931;22;20039;-86
2023/07/04 07:03:32;;;;;;;8.05;1.42;;;15.30;99.90;;;;;;6276436;22;20012;-87
2023/07/04 07:06:01;;;;;;;3.88;1.05;;;15.40;99.90;;;;;;6277469;22;20041;-87
2023/07/04 07:08:27;;;;;;;4.85;1.40;;;15.40;99.90;;;;;;6276296;22;20011;-87
2023/07/04 07:10:58;;;;;;;6.30;1.67;;;15.50;99.90;;;;;;6275538;22;20011;-86
2023/07/04 07:13:25;;;;;;;7.20;1.38;;;15.40;99.90;;;;;;6273309;22;20019;-86
2023/07/04 07:16:03;;;;;;;5.65;1.30;;;15.40;99.90;;;;;;6274643;22;20106;-87
2023/07/04 07:18:32;;;;;;;8.65;1.40;;;15.50;99.90;;;;;;6275222;22;20074;-87
2023/07/04 07:20:58;;;;;;;4.70;1.40;;;15.50;99.90;;;;;;6274847;22;20039;-88
2023/07/04 07:23:26;;;;;;;9.10;1.17;;;15.50;99.90;;;;;;6274249;22;20224;-87
2023/07/04 07:25:56;;;;;;;5.95;1.35;;;15.60;99.90;;;;;;6271364;22;20015;-87
2023/07/04 07:28:27;;;;;;;6.07;1.30;;;15.60;99.90;;;;;;6272502;22;20012;-87
2023/07/04 07:31:04;;;;;;;5.50;1.25;;;15.60;99.90;;;;;;6272547;22;20051;-87
2023/07/04 07:33:31;;;;;;;7.57;1.60;;;15.70;99.90;;;;;;6273295;22;20023;-87
2023/07/04 07:35:58;;;;;;;5.82;1.50;;;15.70;99.90;;;;;;6271046;22;20046;-87
2023/07/04 07:38:24;;;;;;;8.50;1.60;;;15.70;99.90;;;;;;6274540;22;20022;-86
2023/07/04 07:40:51;;;;;;;5.88;1.33;;;15.80;99.90;;;;;;6246073;22;20008;-87
2023/07/04 07:43:16;;;;;;;6.53;1.48;;;15.90;99.90;;;;;;6271655;22;20086;-87
2023/07/04 07:45:42;;;;;;;7.18;1.63;;;16.00;99.90;;;;;;6272433;22;20473;-86
2023/07/04 07:48:08;;;;;;;7.70;1.30;;;16.10;99.90;;;;;;6271084;22;20012;-86
2023/07/04 07:50:33;;;;;;;7.10;1.52;;;16.10;99.90;;;;;;6246433;22;20443;-87
2023/07/04 07:52:59;;;;;;;7.28;1.48;;;16.40;99.90;;;;;;6272098;22;20063;-87
2023/07/04 07:55:25;;;;;;;10.02;2.13;;;16.30;99.90;;;;;;6245953;22;20012;-87
2023/07/04 07:57:50;;;;;;;6.32;1.45;;;16.20;99.90;;;;;;6272354;22;20043;-87
2023/07/04 08:00:16;;;;;;;9.25;1.52;;;16.30;99.90;;;;;;6271519;22;20057;-87
2023/07/04 08:02:42;;;;;;;5.18;1.50;;;16.30;99.90;;;;;;6271821;22;20016;-87
2023/07/04 08:05:08;;;;;;;6.68;1.58;;;16.30;99.90;;;;;;6271992;22;20011;-87
2023/07/04 08:07:33;;;;;;;3.55;1.10;;;16.40;99.90;;;;;;6271722;22;20498;-87
2023/07/04 08:09:59;;;;;;;4.00;0.90;;;16.40;99.90;;;;;;6272379;22;20020;-86
2023/07/04 08:12:25;;;;;;;9.10;1.20;;;16.50;99.90;;;;;;6271405;22;20012;-87
2023/07/04 08:14:51;;;;;;;5.00;1.13;;;16.50;99.90;;;;;;6273755;22;20054;-88
2023/07/04 08:17:17;;;;;;;5.68;1.23;;;16.60;99.90;;;;;;6271290;22;20038;-87
2023/07/04 08:19:42;;;;;;;6.07;1.40;;;16.60;99.90;;;;;;6271515;22;20018;-87
2023/07/04 08:22:08;;;;;;;6.47;1.10;;;16.60;99.90;;;;;;6272934;22;20039;-87
2023/07/04 08:24:34;;;;;;;7.68;1.63;;;16.70;99.90;;;;;;6270734;22;20464;-87
2023/07/04 08:26:59;;;;;;;7.03;1.15;;;16.70;99.90;;;;;;6271777;22;20417;-88
2023/07/04 08:29:25;;;;;;;4.43;1.10;;;16.70;99.90;;;;;;6245743;22;20236;-87
2023/07/04 08:31:51;;;;;;;4.82;1.02;;;16.80;99.90;;;;;;6270846;22;20016;-87
2023/07/04 08:34:17;;;;;;;5.75;1.10;;;16.80;99.90;;;;;;6270839;22;20020;-87
2023/07/04 08:36:44;;;;;;;6.80;1.00;;;16.80;99.90;;;;;;6271260;22;20026;-87
2023/07/04 08:39:10;;;;;;;5.53;1.10;;;16.90;99.90;;;;;;6244577;22;20012;-87
2023/07/04 08:41:47;;;;;;;6.88;1.20;;;17.00;99.90;;;;;;6245792;22;20015;-87
2023/07/04 08:44:15;;;;;;;4.55;1.00;;;17.10;99.90;;;;;;6271809;22;20020;-87
2023/07/04 08:46:45;;;;;;;6.45;1.25;;;17.10;99.90;;;;;;6273545;22;20023;-87
2023/07/04 08:49:47;;;;;;;5.15;1.30;;;17.20;99.90;;;;;;6271295;22;20059;-87
2023/07/04 08:52:23;;;;;;;7.80;1.08;;;17.30;99.90;;;;;;6226329;22;20030;-88
2023/07/04 08:54:49;;;;;;;8.18;1.15;;;17.30;99.90;;;;;;6273275;22;20012;-87
2023/07/04 08:57:36;;;;;;;7.30;1.48;;;17.40;99.90;;;;;;6246110;22;20019;-87
2023/07/04 09:00:09;;;;;;;7.93;1.20;;;17.40;99.90;;;;;;6271423;22;20065;-88
2023/07/04 09:02:49;;;;;;;9.80;1.35;;;17.50;99.90;;;;;;6273969;22;20008;-88
2023/07/04 09:05:39;;;;;;;8.43;1.25;;;17.50;99.90;;;;;;6271288;22;20082;-88
2023/07/04 09:08:33;;;;;;;11.95;1.40;;;17.50;99.90;;;;;;6245331;22;20048;-89
2023/07/04 09:11:06;;;;;;;6.18;1.10;;;17.60;99.90;;;;;;6271946;22;20067;-88
2023/07/04 09:13:43;;;;;;;10.88;1.70;;;17.60;99.90;;;;;;6272202;22;20493;-88
2023/07/04 09:16:16;;;;;;;8.30;1.20;;;17.70;99.90;;;;;;6245881;22;20063;-88
2023/07/04 09:19:01;;;;;;;6.60;1.40;;;17.70;99.90;;;;;;6273806;22;20018;-88
2023/07/04 09:21:29;;;;;;;9.15;1.40;;;17.80;99.90;;;;;;6271531;22;20023;-88
2023/07/04 09:23:58;;;;;;;8.77;1.52;;;17.90;99.90;;;;;;6271982;22;20008;-89
2023/07/04 09:26:29;;;;;;;8.10;1.63;;;18.00;99.90;;;;;;6272118;22;20237;-87
2023/07/04 09:28:57;;;;;;;11.10;1.85;;;18.10;99.90;;;;;;6273312;22;20011;-87
2023/07/04 09:31:30;;;;;;;8.23;1.60;;;18.30;99.90;;;;;;6271702;22;20028;-89
2023/07/04 09:33:57;;;;;;;10.38;2.00;;;18.40;99.90;;;;;;6271629;22;20012;-87
2023/07/04 09:36:31;;;;;;;8.75;1.60;;;18.60;99.90;;;;;;6271222;22;20020;-88
2023/07/04 09:38:59;;;;;;;8.05;1.48;;;18.80;99.90;;;;;;6273637;22;20018;-88
2023/07/04 09:41:26;;;;;;;15.32;2.13;;;18.80;99.90;;;;;;6271736;22;20147;-88
2023/07/04 09:43:54;;;;;;;9.23;1.88;;;18.80;99.90;;;;;;6272538;22;20074;-89
2023/07/04 09:46:19;;;;;;;12.32;2.25;;;18.70;99.90;;;;;;6271596;22;20015;-88
2023/07/04 09:48:45;;;;;;;12.95;1.92;;;18.80;99.90;;;;;;6271948;22;20012;-90
2023/07/04 09:51:26;;;;;;;8.07;1.55;;;19.00;99.90;;;;;;6271411;22;20351;-88
2023/07/04 09:54:28;;;;;;;8.15;1.55;;;19.10;99.90;;;;;;6246951;22;20055;-88
2023/07/04 09:56:53;;;;;;;8.07;1.40;;;19.20;99.90;;;;;;6184038;23;20017;-88
2023/07/04 09:59:26;;;;;;;6.80;1.15;;;19.30;99.90;;;;;;6183882;23;20071;-88
2023/07/04 10:02:11;;;;;;;9.57;1.88;;;19.50;99.90;;;;;;6184339;23;20017;-89
2023/07/04 10:04:40;;;;;;;6.80;1.83;;;19.60;99.90;;;;;;6184028;23;20017;-89
2023/07/04 10:07:14;;;;;;;6.18;1.38;;;19.70;99.90;;;;;;6183066;23;20418;-90
2023/07/04 10:10:06;;;;;;;7.97;1.42;;;19.90;99.90;;;;;;6184448;23;20119;-89
2023/07/04 10:12:45;;;;;;;10.48;1.48;;;19.90;99.90;;;;;;6186149;23;20380;-89
2023/07/04 10:15:24;;;;;;;9.77;1.40;;;20.10;99.90;;;;;;6185753;23;20044;-89
2023/07/04 10:17:50;;;;;;;7.00;2.08;;;20.30;99.90;;;;;;6210702;23;20009;-89
2023/07/04 10:20:15;;;;;;;8.80;1.55;;;20.40;99.90;;;;;;6184927;23;20024;-87
2023/07/04 10:22:52;;;;;;;8.55;2.38;;;20.30;99.90;;;;;;6183674;23;20009;-84
2023/07/04 10:25:22;;;;;;;7.15;1.52;;;20.30;99.90;;;;;;6208736;23;20016;-85
2023/07/04 10:28:14;;;;;;;6.97;1.50;;;20.20;99.90;;;;;;6183435;23;20012;-84
2023/07/04 10:30:43;;;;;;;6.80;1.42;;;20.10;99.90;;;;;;6217160;22;20100;-85
2023/07/04 10:33:24;;;;;;;9.88;1.40;;;20.20;99.90;;;;;;6268123;22;20379;-85
2023/07/04 10:35:51;;;;;;;4.90;1.30;;;20.30;99.90;;;;;;6244701;22;20008;-85
2023/07/04 10:38:42;;;;;;;8.93;1.20;;;20.30;99.90;;;;;;6272231;22;20012;-85
2023/07/04 10:41:25;;;;;;;9.10;1.45;;;20.30;99.90;;;;;;6270259;22;20038;-85
2023/07/04 10:44:03;;;;;;;7.85;1.52;;;20.30;99.90;;;;;;6271014;22;20023;-85
2023/07/04 10:46:30;;;;;;;4.90;1.30;;;20.40;99.90;;;;;;6244915;22;20034;-83
2023/07/04 10:49:09;;;;;;;6.15;1.45;;;20.50;99.90;;;;;;6266056;22;20098;-84
2023/07/04 10:51:39;;;;;;;6.32;1.42;;;20.40;99.90;;;;;;6271752;22;20012;-85
2023/07/04 10:54:08;;;;;;;10.07;1.25;;;20.30;99.90;;;;;;6243247;22;20477;-85
2023/07/04 10:56:35;;;;;;;7.53;1.23;;;20.30;99.90;;;;;;6270625;22;20485;-85
2023/07/04 10:59:18;;;;;;;9.98;1.55;;;20.10;99.90;;;;;;6270149;22;20455;-85
2023/07/04 11:01:52;;;;;;;5.53;1.35;;;20.00;99.90;;;;;;6244783;22;20422;-85
2023/07/04 11:04:26;;;;;;;8.25;1.42;;;19.80;99.90;;;;;;6270400;22;20035;-85
2023/07/04 11:07:08;;;;;;;7.78;1.30;;;19.80;99.90;;;;;;6271428;22;20039;-86
2023/07/04 11:09:38;;;;;;;9.38;1.30;;;19.90;99.90;;;;;;6272248;22;20434;-86
2023/07/04 11:12:08;;;;;;;8.68;1.92;;;20.00;99.90;;;;;;6270856;22;20043;-85
2023/07/04 11:14:39;;;;;;;5.05;1.23;;;19.90;99.90;;;;;;6272805;22;20091;-85
2023/07/04 11:17:10;;;;;;;8.05;1.45;;;19.70;99.90;;;;;;6244687;22;20501;-86
2023/07/04 11:19:53;;;;;;;10.30;1.42;;;19.70;99.90;;;;;;6270194;22;20038;-86
2023/07/04 11:22:18;;;;;;;6.07;1.75;;;19.90;99.90;;;;;;6244643;22;20033;-85
2023/07/04 11:24:54;;;;;;;5.63;1.27;;;20.10;99.90;;;;;;6272644;22;20455;-85
2023/07/04 11:27:24;;;;;;;6.50;1.45;;;20.40;99.60;;;;;;6270757;22;20073;-86
2023/07/04 11:29:58;;;;;;;8.48;1.40;;;20.50;99.90;;;;;;6272225;22;20043;-86
2023/07/04 11:32:40;;;;;;;9.90;1.88;;;20.50;99.90;;;;;;6268956;22;20095;-85
2023/07/04 11:35:09;;;;;;;7.30;1.60;;;20.60;99.90;;;;;;6244597;22;20070;-86
2023/07/04 11:38:01;;;;;;;8.63;1.50;;;20.80;99.90;;;;;;6270448;22;20008;-85
2023/07/04 11:40:41;;;;;;;7.78;1.38;;;21.10;98.90;;;;;;6270619;22;20020;-86
2023/07/04 11:43:21;;;;;;;10.15;1.60;;;21.00;98.30;;;;;;6271650;22;20019;-86
2023/07/04 11:45:48;;;;;;;7.00;1.58;;;20.90;97.50;;;;;;6270563;22;20082;-86
2023/07/04 11:48:18;;;;;;;5.30;1.35;;;20.70;98.50;;;;;;6269437;22;20070;-86
2023/07/04 11:50:48;;;;;;;13.32;2.78;;;20.60;98.90;;;;;;6269859;22;20012;-86
2023/07/04 11:53:38;;;;;;;6.97;1.58;;;20.50;99.10;;;;;;6270330;22;20015;-86
2023/07/04 11:56:05;;;;;;;9.32;1.70;;;20.50;98.90;;;;;;6270590;22;20051;-86
2023/07/04 11:58:31;;;;;;;8.35;1.63;;;20.60;98.60;;;;;;6271030;22;20016;-87
2023/07/04 12:01:02;;;;;;;9.57;1.67;;;20.70;98.60;;;;;;6271269;22;20392;-86
2023/07/04 12:03:28;;;;;;;7.80;1.40;;;20.90;98.70;;;;;;6270037;22;20015;-86
2023/07/04 12:05:53;;;;;;;7.57;1.50;;;21.00;98.70;;;;;;6271729;22;20008;-86
2023/07/04 12:08:29;;;;;;;7.80;1.58;;;20.90;98.50;;;;;;6244886;22;20021;-86
2023/07/04 12:10:59;;;;;;;9.77;1.70;;;20.80;97.80;;;;;;6244709;22;20050;-86
2023/07/04 12:13:26;;;;;;;8.23;1.83;;;20.70;98.50;;;;;;6270801;22;20454;-87
2023/07/04 12:15:56;;;;;;;9.40;1.70;;;20.60;98.70;;;;;;6272366;22;20016;-87
2023/07/04 12:18:29;;;;;;;8.63;1.83;;;20.50;99.00;;;;;;6269848;22;20057;-86
2023/07/04 12:20:58;;;;;;;9.07;1.77;;;20.40;98.30;;;;;;6271772;22;20019;-86
2023/07/04 12:23:24;;;;;;;9.43;1.60;;;20.30;98.90;;;;;;6272533;22;20610;-87
2023/07/04 12:25:55;;;;;;;8.55;1.90;;;20.20;98.90;;;;;;6270633;22;20443;-91
2023/07/04 12:28:26;;;;;;;8.25;2.20;;;20.10;99.00;;;;;;6273349;22;20057;-91
2023/07/04 12:31:01;;;;;;;7.53;2.08;;;20.00;98.70;;;;;;6245544;22;20046;-85
2023/07/04 12:33:29;;;;;;;4.93;1.27;;;20.10;98.60;;;;;;6270495;22;20011;-84
2023/07/04 12:36:00;;;;;;;7.20;1.30;;;20.00;99.00;;;;;;6270849;22;20320;-89
2023/07/04 12:38:28;;;;;;;10.02;2.13;;;20.00;99.40;;;;;;6270065;22;20015;-85
2023/07/04 12:40:56;;;;;;;6.88;1.42;;;20.00;99.30;;;;;;6271804;22;20004;-86
2023/07/04 12:43:30;;;;;;;5.18;1.00;;;20.00;99.40;;;;;;6270307;22;20038;-93
2023/07/04 12:46:18;;;;;;;8.00;1.80;;;20.10;99.60;;;;;;6272207;22;20442;-90
2023/07/04 12:48:44;;;;;;;8.85;1.50;;;20.20;98.60;;;;;;6273070;22;20011;-90
2023/07/04 12:51:14;;;;;;;8.80;1.60;;;20.30;98.70;;;;;;6271178;22;20040;-91
2023/07/04 12:53:42;;;;;;;8.82;1.50;;;20.40;98.60;;;;;;6245024;22;20126;-89
2023/07/04 12:56:10;;;;;;;5.60;1.40;;;20.40;98.70;;;;;;6244474;22;20138;-88
2023/07/04 12:58:43;;;;;;;8.38;1.40;;;20.40;98.70;;;;;;6271918;22;20466;-87
2023/07/04 13:01:11;;;;;;;7.47;1.37;;;20.30;98.40;;;;;;6269511;22;20035;-86